sensor_id;sensor_type;location;lat;lon;timestamp;temperature;humidity
14411;DHT22;7290;50.854;4.354;2023-04-15T00:00:10;12.20;99.90
14411;DHT22;7290;50.854;4.354;2023-04-15T00:02:36;12.20;99.90
14411;DHT22;7290;50.854;4.354;2023-04-15T00:05:03;12.30;99.90
14411;DHT22;7290;50.854;4.354;2023-04-15T00:07:30;12.30;99.90
14411;DHT22;7290;50.854;4.354;2023-04-15T00:09:56;12.40;99.90
14411;DHT22;7290;50.854;4.354;2023-04-15T00:12:23;12.60;99.90
14411;DHT22;7290;50.854;4.354;2023-04-15T00:14:49;12.80;99.90
14411;DHT22;7290;50.854;4.354;2023-04-15T00:17:15;12.90;99.90
14411;DHT22;7290;50.854;4.354;2023-04-15T00:19:42;12.90;99.90
14411;DHT22;7290;50.854;4.354;2023-04-15T00:22:09;12.90;99.90
14411;DHT22;7290;50.854;4.354;2023-04-15T00:24:36;12.80;99.90
14411;DHT22;7290;50.854;4.354;2023-04-15T00:27:02;12.80;99.90
14411;DHT22;7290;50.854;4.354;2023-04-15T00:29:29;12.80;99.90
14411;DHT22;7290;50.854;4.354;2023-04-15T00:31:55;12.90;99.90
14411;DHT22;7290;50.854;4.354;2023-04-15T00:34:21;12.70;99.90
14411;DHT22;7290;50.854;4.354;2023-04-15T00:36:48;12.70;99.90
14411;DHT22;7290;50.854;4.354;2023-04-15T00:39:14;12.70;99.90
14411;DHT22;7290;50.854;4.354;2023-04-15T00:41:41;12.80;99.90
14411;DHT22;7290;50.854;4.354;2023-04-15T00:44:08;12.70;99.90
14411;DHT22;7290;50.854;4.354;2023-04-15T00:46:35;12.50;99.90
14411;DHT22;7290;50.854;4.354;2023-04-15T00:49:04;12.40;99.90
14411;DHT22;7290;50.854;4.354;2023-04-15T00:51:30;12.40;99.90
14411;DHT22;7290;50.854;4.354;2023-04-15T00:53:58;12.50;99.90
14411;DHT22;7290;50.854;4.354;2023-04-15T00:56:25;12.50;99.90
14411;DHT22;7290;50.854;4.354;2023-04-15T00:58:52;12.40;99.90
14411;DHT22;7290;50.854;4.354;2023-04-15T01:01:20;12.50;99.90
14411;DHT22;7290;50.854;4.354;2023-04-15T01:03:46;12.40;99.90
14411;DHT22;7290;50.854;4.354;2023-04-15T01:06:13;12.50;99.90
14411;DHT22;7290;50.854;4.354;2023-04-15T01:08:39;12.60;99.90
14411;DHT22;7290;50.854;4.354;2023-04-15T01:11:06;12.80;99.90
14411;DHT22;7290;50.854;4.354;2023-04-15T01:13:33;12.80;99.90
14411;DHT22;7290;50.854;4.354;2023-04-15T01:16:00;12.60;99.90
14411;DHT22;7290;50.854;4.354;2023-04-15T01:18:27;12.70;99.90
14411;DHT22;7290;50.854;4.354;2023-04-15T01:20:53;12.60;99.90
14411;DHT22;7290;50.854;4.354;2023-04-15T01:23:20;12.60;99.90
14411;DHT22;7290;50.854;4.354;2023-04-15T01:25:48;12.60;99.90
14411;DHT22;7290;50.854;4.354;2023-04-15T01:28:14;12.60;99.90
14411;DHT22;7290;50.854;4.354;2023-04-15T01:30:41;12.40;99.90
14411;DHT22;7290;50.854;4.354;2023-04-15T01:33:07;12.20;99.90
14411;DHT22;7290;50.854;4.354;2023-04-15T01:35:33;12.30;99.90
14411;DHT22;7290;50.854;4.354;2023-04-15T01:38:04;12.40;99.90
14411;DHT22;7290;50.854;4.354;2023-04-15T01:40:31;12.60;99.90
14411;DHT22;7290;50.854;4.354;2023-04-15T01:42:57;12.60;99.90
14411;DHT22;7290;50.854;4.354;2023-04-15T01:45:23;12.50;99.90
14411;DHT22;7290;50.854;4.354;2023-04-15T01:47:50;12.40;99.90
14411;DHT22;7290;50.854;4.354;2023-04-15T01:50:16;12.50;99.90
14411;DHT22;7290;50.854;4.354;2023-04-15T01:52:42;12.50;99.90
14411;DHT22;7290;50.854;4.354;2023-04-15T01:55:08;12.50;99.90
14411;DHT22;7290;50.854;4.354;2023-04-15T01:57:34;12.40;99.90
14411;DHT22;7290;50.854;4.354;2023-04-15T02:00:02;12.40;99.90
14411;DHT22;7290;50.854;4.354;2023-04-15T02:02:28;12.20;99.90
14411;DHT22;7290;50.854;4.354;2023-04-15T02:04:55;12.20;99.90
14411;DHT22;7290;50.854;4.354;2023-04-15T02:07:21;12.30;99.90
14411;DHT22;7290;50.854;4.354;2023-04-15T02:09:48;12.50;99.90
14411;DHT22;7290;50.854;4.354;2023-04-15T02:12:14;12.40;99.90
14411;DHT22;7290;50.854;4.354;2023-04-15T02:14:40;12.40;99.90
14411;DHT22;7290;50.854;4.354;2023-04-15T02:17:07;12.40;99.90
14411;DHT22;7290;50.854;4.354;2023-04-15T02:19:33;12.30;99.90
14411;DHT22;7290;50.854;4.354;2023-04-15T02:21:59;12.40;99.90
14411;DHT22;7290;50.854;4.354;2023-04-15T02:24:26;12.20;99.90
14411;DHT22;7290;50.854;4.354;2023-04-15T02:26:53;12.10;99.90
14411;DHT22;7290;50.854;4.354;2023-04-15T02:29:19;12.20;99.90
14411;DHT22;7290;50.854;4.354;2023-04-15T02:31:45;12.20;99.90
14411;DHT22;7290;50.854;4.354;2023-04-15T02:34:13;12.20;99.90
14411;DHT22;7290;50.854;4.354;2023-04-15T02:36:39;12.10;99.90
14411;DHT22;7290;50.854;4.354;2023-04-15T02:39:05;12.20;99.90
14411;DHT22;7290;50.854;4.354;2023-04-15T02:41:31;12.20;99.90
14411;DHT22;7290;50.854;4.354;2023-04-15T02:43:57;12.20;99.90
14411;DHT22;7290;50.854;4.354;2023-04-15T02:46:23;12.00;99.90
14411;DHT22;7290;50.854;4.354;2023-04-15T02:48:49;11.80;99.90
14411;DHT22;7290;50.854;4.354;2023-04-15T02:51:17;11.80;99.90
14411;DHT22;7290;50.854;4.354;2023-04-15T02:53:44;11.80;99.90
14411;DHT22;7290;50.854;4.354;2023-04-15T02:56:10;11.70;99.90
14411;DHT22;7290;50.854;4.354;2023-04-15T02:58:38;11.80;99.90
14411;DHT22;7290;50.854;4.354;2023-04-15T03:01:05;11.90;99.90
14411;DHT22;7290;50.854;4.354;2023-04-15T03:03:32;11.90;99.90
14411;DHT22;7290;50.854;4.354;2023-04-15T03:05:58;12.00;99.90
14411;DHT22;7290;50.854;4.354;2023-04-15T03:08:24;12.10;99.90
14411;DHT22;7290;50.854;4.354;2023-04-15T03:10:51;12.20;99.90
14411;DHT22;7290;50.854;4.354;2023-04-15T03:13:18;12.10;99.90
14411;DHT22;7290;50.854;4.354;2023-04-15T03:15:45;11.90;99.90
14411;DHT22;7290;50.854;4.354;2023-04-15T03:18:12;12.00;99.90
14411;DHT22;7290;50.854;4.354;2023-04-15T03:20:38;12.00;99.90
14411;DHT22;7290;50.854;4.354;2023-04-15T03:23:04;11.90;99.90
14411;DHT22;7290;50.854;4.354;2023-04-15T03:25:30;12.00;99.90
14411;DHT22;7290;50.854;4.354;2023-04-15T03:27:56;12.00;99.90
14411;DHT22;7290;50.854;4.354;2023-04-15T03:30:23;12.10;99.90
14411;DHT22;7290;50.854;4.354;2023-04-15T03:32:49;12.00;99.90
14411;DHT22;7290;50.854;4.354;2023-04-15T03:35:15;12.00;99.90
14411;DHT22;7290;50.854;4.354;2023-04-15T03:37:41;12.00;99.90
14411;DHT22;7290;50.854;4.354;2023-04-15T03:40:08;12.00;99.90
14411;DHT22;7290;50.854;4.354;2023-04-15T03:42:35;11.80;99.90
14411;DHT22;7290;50.854;4.354;2023-04-15T03:45:01;11.80;99.90
14411;DHT22;7290;50.854;4.354;2023-04-15T03:47:27;11.90;99.90
14411;DHT22;7290;50.854;4.354;2023-04-15T03:49:53;11.90;99.90
14411;DHT22;7290;50.854;4.354;2023-04-15T03:52:20;11.90;99.90
14411;DHT22;7290;50.854;4.354;2023-04-15T03:54:46;11.80;99.90
14411;DHT22;7290;50.854;4.354;2023-04-15T03:57:12;11.80;99.90
14411;DHT22;7290;50.854;4.354;2023-04-15T03:59:39;11.70;99.90
14411;DHT22;7290;50.854;4.354;2023-04-15T04:02:05;11.60;99.90
14411;DHT22;7290;50.854;4.354;2023-04-15T04:04:31;11.60;99.90
14411;DHT22;7290;50.854;4.354;2023-04-15T04:06:57;11.70;99.90
14411;DHT22;7290;50.854;4.354;2023-04-15T04:09:23;11.60;99.90
14411;DHT22;7290;50.854;4.354;2023-04-15T04:11:50;11.60;99.90
14411;DHT22;7290;50.854;4.354;2023-04-15T04:14:16;11.50;99.90
14411;DHT22;7290;50.854;4.354;2023-04-15T04:16:43;11.40;99.90
14411;DHT22;7290;50.854;4.354;2023-04-15T04:19:09;11.40;99.90
14411;DHT22;7290;50.854;4.354;2023-04-15T04:21:35;11.30;99.90
14411;DHT22;7290;50.854;4.354;2023-04-15T04:24:01;11.30;99.90
14411;DHT22;7290;50.854;4.354;2023-04-15T04:26:27;11.30;99.90
14411;DHT22;7290;50.854;4.354;2023-04-15T04:28:53;11.40;99.90
14411;DHT22;7290;50.854;4.354;2023-04-15T04:31:19;11.40;99.90
14411;DHT22;7290;50.854;4.354;2023-04-15T04:33:46;11.50;99.90
14411;DHT22;7290;50.854;4.354;2023-04-15T04:36:12;11.40;99.90
14411;DHT22;7290;50.854;4.354;2023-04-15T04:38:38;11.40;99.90
14411;DHT22;7290;50.854;4.354;2023-04-15T04:41:04;11.40;99.90
14411;DHT22;7290;50.854;4.354;2023-04-15T04:43:31;11.40;99.90
14411;DHT22;7290;50.854;4.354;2023-04-15T04:45:57;11.40;99.90
14411;DHT22;7290;50.854;4.354;2023-04-15T04:48:23;11.50;99.90
14411;DHT22;7290;50.854;4.354;2023-04-15T04:50:49;11.60;99.90
14411;DHT22;7290;50.854;4.354;2023-04-15T04:53:15;11.60;99.90
14411;DHT22;7290;50.854;4.354;2023-04-15T04:55:42;11.40;99.90
14411;DHT22;7290;50.854;4.354;2023-04-15T04:58:08;11.30;99.90
14411;DHT22;7290;50.854;4.354;2023-04-15T05:00:34;11.30;99.90
14411;DHT22;7290;50.854;4.354;2023-04-15T05:03:02;11.30;99.90
14411;DHT22;7290;50.854;4.354;2023-04-15T05:05:28;11.10;99.90
14411;DHT22;7290;50.854;4.354;2023-04-15T05:07:55;10.90;99.90
14411;DHT22;7290;50.854;4.354;2023-04-15T05:10:21;11.10;99.90
14411;DHT22;7290;50.854;4.354;2023-04-15T05:12:47;11.20;99.90
14411;DHT22;7290;50.854;4.354;2023-04-15T05:15:13;11.10;99.90
14411;DHT22;7290;50.854;4.354;2023-04-15T05:17:39;11.10;99.90
14411;DHT22;7290;50.854;4.354;2023-04-15T05:20:07;11.30;99.90
14411;DHT22;7290;50.854;4.354;2023-04-15T05:22:34;11.40;99.90
14411;DHT22;7290;50.854;4.354;2023-04-15T05:25:00;11.40;99.90
14411;DHT22;7290;50.854;4.354;2023-04-15T05:27:27;11.50;99.90
14411;DHT22;7290;50.854;4.354;2023-04-15T05:29:53;11.50;99.90
14411;DHT22;7290;50.854;4.354;2023-04-15T05:32:19;11.60;99.90
14411;DHT22;7290;50.854;4.354;2023-04-15T05:34:45;11.60;99.90
14411;DHT22;7290;50.854;4.354;2023-04-15T05:37:11;11.50;99.90
14411;DHT22;7290;50.854;4.354;2023-04-15T05:39:37;11.30;99.90
14411;DHT22;7290;50.854;4.354;2023-04-15T05:42:04;11.40;99.90
14411;DHT22;7290;50.854;4.354;2023-04-15T05:44:30;11.50;99.90
14411;DHT22;7290;50.854;4.354;2023-04-15T05:46:56;11.60;99.90
14411;DHT22;7290;50.854;4.354;2023-04-15T05:49:22;11.60;99.90
14411;DHT22;7290;50.854;4.354;2023-04-15T05:51:48;11.50;99.90
14411;DHT22;7290;50.854;4.354;2023-04-15T05:54:15;11.30;99.90
14411;DHT22;7290;50.854;4.354;2023-04-15T05:56:41;11.30;99.90
14411;DHT22;7290;50.854;4.354;2023-04-15T05:59:08;11.30;99.90
14411;DHT22;7290;50.854;4.354;2023-04-15T06:01:34;11.50;99.90
14411;DHT22;7290;50.854;4.354;2023-04-15T06:04:00;11.50;99.90
14411;DHT22;7290;50.854;4.354;2023-04-15T06:06:26;11.60;99.90
14411;DHT22;7290;50.854;4.354;2023-04-15T06:08:52;11.60;99.90
14411;DHT22;7290;50.854;4.354;2023-04-15T06:11:20;11.60;99.90
14411;DHT22;7290;50.854;4.354;2023-04-15T06:13:46;11.70;99.90
14411;DHT22;7290;50.854;4.354;2023-04-15T06:16:13;11.60;99.90
14411;DHT22;7290;50.854;4.354;2023-04-15T06:18:39;11.60;99.90
14411;DHT22;7290;50.854;4.354;2023-04-15T06:21:05;11.60;99.90
14411;DHT22;7290;50.854;4.354;2023-04-15T06:23:33;11.80;99.90
14411;DHT22;7290;50.854;4.354;2023-04-15T06:25:59;12.00;99.90
14411;DHT22;7290;50.854;4.354;2023-04-15T06:28:25;12.20;99.90
14411;DHT22;7290;50.854;4.354;2023-04-15T06:30:52;12.50;99.90
14411;DHT22;7290;50.854;4.354;2023-04-15T06:33:18;12.50;99.90
14411;DHT22;7290;50.854;4.354;2023-04-15T06:35:45;12.80;99.90
14411;DHT22;7290;50.854;4.354;2023-04-15T06:38:12;13.00;99.90
14411;DHT22;7290;50.854;4.354;2023-04-15T06:40:38;13.00;99.90
14411;DHT22;7290;50.854;4.354;2023-04-15T06:43:05;13.10;99.90
14411;DHT22;7290;50.854;4.354;2023-04-15T06:45:32;13.40;99.90
14411;DHT22;7290;50.854;4.354;2023-04-15T06:47:58;13.60;99.90
14411;DHT22;7290;50.854;4.354;2023-04-15T06:50:25;13.90;99.90
14411;DHT22;7290;50.854;4.354;2023-04-15T06:55:18;14.70;99.90
14411;DHT22;7290;50.854;4.354;2023-04-15T06:57:44;15.00;99.90
14411;DHT22;7290;50.854;4.354;2023-04-15T07:00:11;15.10;99.90
14411;DHT22;7290;50.854;4.354;2023-04-15T07:02:37;15.10;99.90
14411;DHT22;7290;50.854;4.354;2023-04-15T07:05:05;15.30;99.90
14411;DHT22;7290;50.854;4.354;2023-04-15T07:07:32;15.70;99.90
14411;DHT22;7290;50.854;4.354;2023-04-15T07:09:58;16.00;99.90
14411;DHT22;7290;50.854;4.354;2023-04-15T07:12:24;16.20;99.90
14411;DHT22;7290;50.854;4.354;2023-04-15T07:14:50;16.20;99.90
14411;DHT22;7290;50.854;4.354;2023-04-15T07:17:16;16.60;99.90
14411;DHT22;7290;50.854;4.354;2023-04-15T07:19:42;16.40;99.90
14411;DHT22;7290;50.854;4.354;2023-04-15T07:22:08;16.40;99.90
14411;DHT22;7290;50.854;4.354;2023-04-15T07:24:35;16.20;99.90
14411;DHT22;7290;50.854;4.354;2023-04-15T07:27:01;15.70;99.90
14411;DHT22;7290;50.854;4.354;2023-04-15T07:29:28;15.40;99.90
14411;DHT22;7290;50.854;4.354;2023-04-15T07:31:54;15.00;99.90
14411;DHT22;7290;50.854;4.354;2023-04-15T07:34:21;14.70;99.90
14411;DHT22;7290;50.854;4.354;2023-04-15T07:36:47;14.40;99.90
14411;DHT22;7290;50.854;4.354;2023-04-15T07:39:15;14.10;99.90
14411;DHT22;7290;50.854;4.354;2023-04-15T07:41:41;14.00;99.90
14411;DHT22;7290;50.854;4.354;2023-04-15T07:44:07;13.90;99.90
14411;DHT22;7290;50.854;4.354;2023-04-15T07:46:34;13.00;99.90
14411;DHT22;7290;50.854;4.354;2023-04-15T07:49:00;13.00;99.90
14411;DHT22;7290;50.854;4.354;2023-04-15T07:51:26;13.20;99.90
14411;DHT22;7290;50.854;4.354;2023-04-15T07:53:53;13.40;99.90
14411;DHT22;7290;50.854;4.354;2023-04-15T07:56:19;13.40;99.90
14411;DHT22;7290;50.854;4.354;2023-04-15T07:58:46;13.40;99.90
14411;DHT22;7290;50.854;4.354;2023-04-15T08:01:13;13.10;99.90
14411;DHT22;7290;50.854;4.354;2023-04-15T08:03:39;13.20;99.90
14411;DHT22;7290;50.854;4.354;2023-04-15T08:06:05;13.10;99.90
14411;DHT22;7290;50.854;4.354;2023-04-15T08:08:31;13.20;99.90
14411;DHT22;7290;50.854;4.354;2023-04-15T08:10:57;13.20;99.90
14411;DHT22;7290;50.854;4.354;2023-04-15T08:13:25;13.40;99.90
14411;DHT22;7290;50.854;4.354;2023-04-15T08:16:15;13.50;99.90
14411;DHT22;7290;50.854;4.354;2023-04-15T08:18:43;13.80;99.90
14411;DHT22;7290;50.854;4.354;2023-04-15T08:21:09;14.10;99.90
14411;DHT22;7290;50.854;4.354;2023-04-15T08:23:35;14.70;99.90
14411;DHT22;7290;50.854;4.354;2023-04-15T08:26:01;15.50;99.90
14411;DHT22;7290;50.854;4.354;2023-04-15T08:28:27;16.80;99.90
14411;DHT22;7290;50.854;4.354;2023-04-15T08:30:54;18.20;99.90
14411;DHT22;7290;50.854;4.354;2023-04-15T08:33:20;18.40;99.90
14411;DHT22;7290;50.854;4.354;2023-04-15T08:35:47;18.30;99.90
14411;DHT22;7290;50.854;4.354;2023-04-15T08:38:13;18.70;99.90
14411;DHT22;7290;50.854;4.354;2023-04-15T08:40:41;18.60;99.90
14411;DHT22;7290;50.854;4.354;2023-04-15T08:43:09;18.60;99.90
14411;DHT22;7290;50.854;4.354;2023-04-15T08:45:38;18.80;99.80
14411;DHT22;7290;50.854;4.354;2023-04-15T08:48:05;18.80;99.60
14411;DHT22;7290;50.854;4.354;2023-04-15T08:50:32;18.60;99.80
14411;DHT22;7290;50.854;4.354;2023-04-15T08:52:58;18.80;99.90
14411;DHT22;7290;50.854;4.354;2023-04-15T08:55:29;18.60;99.40
14411;DHT22;7290;50.854;4.354;2023-04-15T08:57:58;18.20;99.90
14411;DHT22;7290;50.854;4.354;2023-04-15T09:00:24;18.90;99.90
14411;DHT22;7290;50.854;4.354;2023-04-15T09:02:51;19.90;99.00
14411;DHT22;7290;50.854;4.354;2023-04-15T09:05:18;20.90;97.60
14411;DHT22;7290;50.854;4.354;2023-04-15T09:07:46;21.40;96.60
14411;DHT22;7290;50.854;4.354;2023-04-15T09:10:12;21.90;95.80
14411;DHT22;7290;50.854;4.354;2023-04-15T09:12:38;23.20;94.30
14411;DHT22;7290;50.854;4.354;2023-04-15T09:15:05;24.50;92.70
14411;DHT22;7290;50.854;4.354;2023-04-15T09:17:32;24.40;91.80
14411;DHT22;7290;50.854;4.354;2023-04-15T09:20:07;25.90;90.80
14411;DHT22;7290;50.854;4.354;2023-04-15T09:22:34;26.90;88.20
14411;DHT22;7290;50.854;4.354;2023-04-15T09:25:01;28.20;83.50
14411;DHT22;7290;50.854;4.354;2023-04-15T09:27:27;27.70;82.30
14411;DHT22;7290;50.854;4.354;2023-04-15T09:29:53;27.80;79.80
14411;DHT22;7290;50.854;4.354;2023-04-15T09:32:20;27.70;79.80
14411;DHT22;7290;50.854;4.354;2023-04-15T09:34:48;27.70;77.90
14411;DHT22;7290;50.854;4.354;2023-04-15T09:37:14;27.70;77.40
14411;DHT22;7290;50.854;4.354;2023-04-15T09:39:48;26.40;77.90
14411;DHT22;7290;50.854;4.354;2023-04-15T09:42:15;27.60;75.80
14411;DHT22;7290;50.854;4.354;2023-04-15T09:44:42;29.20;73.30
14411;DHT22;7290;50.854;4.354;2023-04-15T09:47:08;29.80;70.60
14411;DHT22;7290;50.854;4.354;2023-04-15T09:49:34;30.20;67.60
14411;DHT22;7290;50.854;4.354;2023-04-15T09:52:01;28.70;66.00
14411;DHT22;7290;50.854;4.354;2023-04-15T09:54:33;24.70;71.70
14411;DHT22;7290;50.854;4.354;2023-04-15T09:57:05;23.40;76.60
14411;DHT22;7290;50.854;4.354;2023-04-15T09:59:32;24.30;75.90
14411;DHT22;7290;50.854;4.354;2023-04-15T10:01:58;23.20;79.40
14411;DHT22;7290;50.854;4.354;2023-04-15T10:04:25;24.30;78.20
14411;DHT22;7290;50.854;4.354;2023-04-15T10:06:52;26.80;75.00
14411;DHT22;7290;50.854;4.354;2023-04-15T10:09:18;28.10;71.60
14411;DHT22;7290;50.854;4.354;2023-04-15T10:11:45;29.10;69.70
14411;DHT22;7290;50.854;4.354;2023-04-15T10:14:14;29.40;68.70
14411;DHT22;7290;50.854;4.354;2023-04-15T10:16:41;29.50;67.70
14411;DHT22;7290;50.854;4.354;2023-04-15T10:19:11;28.00;69.10
14411;DHT22;7290;50.854;4.354;2023-04-15T10:21:37;28.30;69.20
14411;DHT22;7290;50.854;4.354;2023-04-15T10:24:04;29.20;68.00
14411;DHT22;7290;50.854;4.354;2023-04-15T10:26:31;25.40;70.80
14411;DHT22;7290;50.854;4.354;2023-04-15T10:28:58;26.40;69.90
14411;DHT22;7290;50.854;4.354;2023-04-15T10:31:26;26.50;70.00
14411;DHT22;7290;50.854;4.354;2023-04-15T10:33:53;27.10;70.00
14411;DHT22;7290;50.854;4.354;2023-04-15T10:36:19;26.70;70.40
14411;DHT22;7290;50.854;4.354;2023-04-15T10:38:46;26.30;69.10
14411;DHT22;7290;50.854;4.354;2023-04-15T10:41:13;26.50;69.20
14411;DHT22;7290;50.854;4.354;2023-04-15T10:43:45;27.00;68.20
14411;DHT22;7290;50.854;4.354;2023-04-15T10:46:11;28.00;66.80
14411;DHT22;7290;50.854;4.354;2023-04-15T10:48:38;28.50;65.50
14411;DHT22;7290;50.854;4.354;2023-04-15T10:51:04;27.50;64.60
14411;DHT22;7290;50.854;4.354;2023-04-15T10:53:30;24.70;71.00
14411;DHT22;7290;50.854;4.354;2023-04-15T10:55:57;22.60;74.30
14411;DHT22;7290;50.854;4.354;2023-04-15T10:58:24;24.40;71.70
14411;DHT22;7290;50.854;4.354;2023-04-15T11:00:52;26.60;67.20
14411;DHT22;7290;50.854;4.354;2023-04-15T11:03:35;28.00;63.10
14411;DHT22;7290;50.854;4.354;2023-04-15T11:06:02;28.10;61.80
14411;DHT22;7290;50.854;4.354;2023-04-15T11:08:53;28.70;58.40
14411;DHT22;7290;50.854;4.354;2023-04-15T11:11:19;29.00;56.40
14411;DHT22;7290;50.854;4.354;2023-04-15T11:13:47;27.80;57.60
14411;DHT22;7290;50.854;4.354;2023-04-15T11:16:13;27.90;58.30
14411;DHT22;7290;50.854;4.354;2023-04-15T11:18:40;28.90;57.10
14411;DHT22;7290;50.854;4.354;2023-04-15T11:21:07;28.70;56.50
14411;DHT22;7290;50.854;4.354;2023-04-15T11:23:38;29.00;56.70
14411;DHT22;7290;50.854;4.354;2023-04-15T11:26:06;29.40;56.70
14411;DHT22;7290;50.854;4.354;2023-04-15T11:28:34;30.00;56.10
14411;DHT22;7290;50.854;4.354;2023-04-15T11:31:05;30.50;55.60
14411;DHT22;7290;50.854;4.354;2023-04-15T11:33:33;29.40;56.30
14411;DHT22;7290;50.854;4.354;2023-04-15T11:36:00;28.50;56.30
14411;DHT22;7290;50.854;4.354;2023-04-15T11:38:27;28.70;57.10
14411;DHT22;7290;50.854;4.354;2023-04-15T11:40:53;29.10;56.90
14411;DHT22;7290;50.854;4.354;2023-04-15T11:43:20;29.10;56.10
14411;DHT22;7290;50.854;4.354;2023-04-15T11:45:52;29.00;55.30
14411;DHT22;7290;50.854;4.354;2023-04-15T11:48:19;29.90;53.20
14411;DHT22;7290;50.854;4.354;2023-04-15T11:50:45;28.30;48.70
14411;DHT22;7290;50.854;4.354;2023-04-15T11:53:12;27.40;48.00
14411;DHT22;7290;50.854;4.354;2023-04-15T11:55:43;26.40;50.70
14411;DHT22;7290;50.854;4.354;2023-04-15T11:58:12;26.00;52.20
14411;DHT22;7290;50.854;4.354;2023-04-15T12:00:40;25.30;56.10
14411;DHT22;7290;50.854;4.354;2023-04-15T12:03:21;25.20;57.50
14411;DHT22;7290;50.854;4.354;2023-04-15T12:06:07;24.80;56.40
14411;DHT22;7290;50.854;4.354;2023-04-15T12:09:08;25.50;55.00
14411;DHT22;7290;50.854;4.354;2023-04-15T12:11:40;24.80;55.00
14411;DHT22;7290;50.854;4.354;2023-04-15T12:14:09;24.00;55.50
14411;DHT22;7290;50.854;4.354;2023-04-15T12:16:39;23.70;55.20
14411;DHT22;7290;50.854;4.354;2023-04-15T12:19:08;23.50;55.20
14411;DHT22;7290;50.854;4.354;2023-04-15T12:21:36;23.10;56.10
14411;DHT22;7290;50.854;4.354;2023-04-15T12:24:04;22.90;58.10
14411;DHT22;7290;50.854;4.354;2023-04-15T12:26:34;22.00;60.90
14411;DHT22;7290;50.854;4.354;2023-04-15T12:29:01;22.00;62.60
14411;DHT22;7290;50.854;4.354;2023-04-15T12:31:28;22.20;62.60
14411;DHT22;7290;50.854;4.354;2023-04-15T12:33:54;22.00;61.40
14411;DHT22;7290;50.854;4.354;2023-04-15T12:36:20;21.40;61.70
14411;DHT22;7290;50.854;4.354;2023-04-15T12:38:46;21.00;62.60
14411;DHT22;7290;50.854;4.354;2023-04-15T12:41:13;20.50;62.30
14411;DHT22;7290;50.854;4.354;2023-04-15T12:43:39;20.00;61.50
14411;DHT22;7290;50.854;4.354;2023-04-15T12:46:05;19.80;62.60
14411;DHT22;7290;50.854;4.354;2023-04-15T12:48:32;19.70;62.10
14411;DHT22;7290;50.854;4.354;2023-04-15T12:50:59;19.80;63.70
14411;DHT22;7290;50.854;4.354;2023-04-15T12:53:25;19.70;65.50
14411;DHT22;7290;50.854;4.354;2023-04-15T12:55:52;19.70;66.40
14411;DHT22;7290;50.854;4.354;2023-04-15T12:58:18;19.80;65.30
14411;DHT22;7290;50.854;4.354;2023-04-15T13:00:44;19.70;61.50
14411;DHT22;7290;50.854;4.354;2023-04-15T13:03:10;19.30;61.30
14411;DHT22;7290;50.854;4.354;2023-04-15T13:05:37;19.20;62.40
14411;DHT22;7290;50.854;4.354;2023-04-15T13:08:04;19.20;63.10
14411;DHT22;7290;50.854;4.354;2023-04-15T13:10:30;19.30;64.00
14411;DHT22;7290;50.854;4.354;2023-04-15T13:12:57;19.20;64.60
14411;DHT22;7290;50.854;4.354;2023-04-15T13:15:23;19.00;65.00
14411;DHT22;7290;50.854;4.354;2023-04-15T13:17:50;18.70;65.90
14411;DHT22;7290;50.854;4.354;2023-04-15T13:20:17;18.70;66.10
14411;DHT22;7290;50.854;4.354;2023-04-15T13:22:43;18.70;67.30
14411;DHT22;7290;50.854;4.354;2023-04-15T13:25:09;18.70;68.50
14411;DHT22;7290;50.854;4.354;2023-04-15T13:27:36;18.90;70.20
14411;DHT22;7290;50.854;4.354;2023-04-15T13:30:02;19.00;71.90
14411;DHT22;7290;50.854;4.354;2023-04-15T13:32:29;18.70;73.10
14411;DHT22;7290;50.854;4.354;2023-04-15T13:34:55;18.70;73.50
14411;DHT22;7290;50.854;4.354;2023-04-15T13:37:25;18.80;73.70
14411;DHT22;7290;50.854;4.354;2023-04-15T13:39:52;18.90;73.60
14411;DHT22;7290;50.854;4.354;2023-04-15T13:42:18;18.90;72.90
14411;DHT22;7290;50.854;4.354;2023-04-15T13:44:44;19.20;71.90
14411;DHT22;7290;50.854;4.354;2023-04-15T13:47:10;19.30;71.50
14411;DHT22;7290;50.854;4.354;2023-04-15T13:49:37;19.60;71.10
14411;DHT22;7290;50.854;4.354;2023-04-15T13:52:03;19.40;71.10
14411;DHT22;7290;50.854;4.354;2023-04-15T13:54:30;19.40;71.80
14411;DHT22;7290;50.854;4.354;2023-04-15T13:56:56;18.90;69.50
14411;DHT22;7290;50.854;4.354;2023-04-15T13:59:22;18.90;70.70
14411;DHT22;7290;50.854;4.354;2023-04-15T14:01:48;18.70;72.20
14411;DHT22;7290;50.854;4.354;2023-04-15T14:04:15;18.50;72.50
14411;DHT22;7290;50.854;4.354;2023-04-15T14:06:41;18.60;71.90
14411;DHT22;7290;50.854;4.354;2023-04-15T14:09:07;18.60;71.40
14411;DHT22;7290;50.854;4.354;2023-04-15T14:11:34;18.50;71.90
14411;DHT22;7290;50.854;4.354;2023-04-15T14:14:01;18.40;73.80
14411;DHT22;7290;50.854;4.354;2023-04-15T14:16:27;18.70;74.30
14411;DHT22;7290;50.854;4.354;2023-04-15T14:18:53;18.90;73.50
14411;DHT22;7290;50.854;4.354;2023-04-15T14:21:19;18.60;75.20
14411;DHT22;7290;50.854;4.354;2023-04-15T14:23:45;18.40;76.00
14411;DHT22;7290;50.854;4.354;2023-04-15T14:26:16;18.20;76.80
14411;DHT22;7290;50.854;4.354;2023-04-15T14:28:44;18.10;77.30
14411;DHT22;7290;50.854;4.354;2023-04-15T14:31:10;18.10;77.20
14411;DHT22;7290;50.854;4.354;2023-04-15T14:33:36;18.30;76.90
14411;DHT22;7290;50.854;4.354;2023-04-15T14:36:02;18.40;76.60
14411;DHT22;7290;50.854;4.354;2023-04-15T14:38:28;18.60;75.60
14411;DHT22;7290;50.854;4.354;2023-04-15T14:40:55;18.70;75.70
14411;DHT22;7290;50.854;4.354;2023-04-15T14:43:21;18.90;75.30
14411;DHT22;7290;50.854;4.354;2023-04-15T14:45:47;18.70;74.90
14411;DHT22;7290;50.854;4.354;2023-04-15T14:48:13;18.40;74.20
14411;DHT22;7290;50.854;4.354;2023-04-15T14:50:39;18.20;74.60
14411;DHT22;7290;50.854;4.354;2023-04-15T14:53:05;18.20;75.50
14411;DHT22;7290;50.854;4.354;2023-04-15T14:55:32;18.00;76.20
14411;DHT22;7290;50.854;4.354;2023-04-15T14:57:59;18.00;77.50
14411;DHT22;7290;50.854;4.354;2023-04-15T15:00:26;17.90;77.90
14411;DHT22;7290;50.854;4.354;2023-04-15T15:02:53;18.00;78.40
14411;DHT22;7290;50.854;4.354;2023-04-15T15:05:19;18.00;79.10
14411;DHT22;7290;50.854;4.354;2023-04-15T15:07:45;18.10;79.40
14411;DHT22;7290;50.854;4.354;2023-04-15T15:10:11;18.20;79.40
14411;DHT22;7290;50.854;4.354;2023-04-15T15:12:38;18.40;80.10
14411;DHT22;7290;50.854;4.354;2023-04-15T15:15:04;18.40;80.20
14411;DHT22;7290;50.854;4.354;2023-04-15T15:17:31;18.30;79.90
14411;DHT22;7290;50.854;4.354;2023-04-15T15:19:57;18.10;80.80
14411;DHT22;7290;50.854;4.354;2023-04-15T15:22:24;18.00;83.00
14411;DHT22;7290;50.854;4.354;2023-04-15T15:24:50;18.40;85.10
14411;DHT22;7290;50.854;4.354;2023-04-15T15:27:16;18.40;85.50
14411;DHT22;7290;50.854;4.354;2023-04-15T15:29:42;18.30;87.50
14411;DHT22;7290;50.854;4.354;2023-04-15T15:32:09;18.20;90.20
14411;DHT22;7290;50.854;4.354;2023-04-15T15:34:35;17.70;91.70
14411;DHT22;7290;50.854;4.354;2023-04-15T15:37:02;17.80;92.30
14411;DHT22;7290;50.854;4.354;2023-04-15T15:39:28;17.50;93.30
14411;DHT22;7290;50.854;4.354;2023-04-15T15:41:54;17.50;94.00
14411;DHT22;7290;50.854;4.354;2023-04-15T15:44:20;17.30;94.80